sensor_id;sensor_type;location;lat;lon;timestamp;temperature;humidity
6164;DHT22;3114;48.362;10.994;2022-11-10T00:01:02;11.90;99.90
6164;DHT22;3114;48.362;10.994;2022-11-10T00:03:29;11.90;99.90
6164;DHT22;3114;48.362;10.994;2022-11-10T00:05:56;11.80;99.90
6164;DHT22;3114;48.362;10.994;2022-11-10T00:08:23;11.80;99.90
6164;DHT22;3114;48.362;10.994;2022-11-10T00:10:50;11.90;99.90
6164;DHT22;3114;48.362;10.994;2022-11-10T00:13:25;11.90;99.90
6164;DHT22;3114;48.362;10.994;2022-11-10T00:15:53;11.90;99.90
6164;DHT22;3114;48.362;10.994;2022-11-10T00:18:37;11.90;99.90
6164;DHT22;3114;48.362;10.994;2022-11-10T00:21:06;11.90;99.90
6164;DHT22;3114;48.362;10.994;2022-11-10T00:23:33;11.90;99.90
6164;DHT22;3114;48.362;10.994;2022-11-10T00:26:00;11.90;99.90
6164;DHT22;3114;48.362;10.994;2022-11-10T00:28:29;12.00;99.90
6164;DHT22;3114;48.362;10.994;2022-11-10T00:30:56;11.90;99.90
6164;DHT22;3114;48.362;10.994;2022-11-10T00:33:23;12.00;99.90
6164;DHT22;3114;48.362;10.994;2022-11-10T00:35:50;12.20;99.90
6164;DHT22;3114;48.362;10.994;2022-11-10T00:38:17;12.20;99.90
6164;DHT22;3114;48.362;10.994;2022-11-10T00:40:44;12.30;99.90
6164;DHT22;3114;48.362;10.994;2022-11-10T00:43:11;12.30;99.90
6164;DHT22;3114;48.362;10.994;2022-11-10T00:45:42;12.40;99.90
6164;DHT22;3114;48.362;10.994;2022-11-10T00:48:09;12.40;99.90
6164;DHT22;3114;48.362;10.994;2022-11-10T00:50:36;12.50;99.90
6164;DHT22;3114;48.362;10.994;2022-11-10T00:53:03;12.60;99.90
6164;DHT22;3114;48.362;10.994;2022-11-10T00:55:30;12.50;99.90
6164;DHT22;3114;48.362;10.994;2022-11-10T00:57:57;12.50;99.90
6164;DHT22;3114;48.362;10.994;2022-11-10T01:00:23;12.50;99.90
6164;DHT22;3114;48.362;10.994;2022-11-10T01:02:52;12.50;99.90
6164;DHT22;3114;48.362;10.994;2022-11-10T01:05:18;12.70;99.90
6164;DHT22;3114;48.362;10.994;2022-11-10T01:07:45;12.60;99.90
6164;DHT22;3114;48.362;10.994;2022-11-10T01:10:12;12.70;99.90
6164;DHT22;3114;48.362;10.994;2022-11-10T01:12:39;12.70;99.90
6164;DHT22;3114;48.362;10.994;2022-11-10T01:15:07;12.30;99.90
6164;DHT22;3114;48.362;10.994;2022-11-10T01:17:34;12.30;99.90
6164;DHT22;3114;48.362;10.994;2022-11-10T01:20:03;12.10;99.90
6164;DHT22;3114;48.362;10.994;2022-11-10T01:22:32;12.20;99.90
6164;DHT22;3114;48.362;10.994;2022-11-10T01:24:59;12.40;99.90
6164;DHT22;3114;48.362;10.994;2022-11-10T01:27:26;12.60;99.90
6164;DHT22;3114;48.362;10.994;2022-11-10T01:29:53;12.70;99.90
6164;DHT22;3114;48.362;10.994;2022-11-10T01:32:20;12.90;99.90
6164;DHT22;3114;48.362;10.994;2022-11-10T01:34:47;12.60;99.90
6164;DHT22;3114;48.362;10.994;2022-11-10T01:37:16;12.40;99.90
6164;DHT22;3114;48.362;10.994;2022-11-10T01:39:43;12.50;99.90
6164;DHT22;3114;48.362;10.994;2022-11-10T01:42:10;12.60;99.90
6164;DHT22;3114;48.362;10.994;2022-11-10T01:44:39;12.70;99.90
6164;DHT22;3114;48.362;10.994;2022-11-10T01:47:06;12.80;99.90
6164;DHT22;3114;48.362;10.994;2022-11-10T01:49:33;12.80;99.90
6164;DHT22;3114;48.362;10.994;2022-11-10T01:52:05;12.80;99.90
6164;DHT22;3114;48.362;10.994;2022-11-10T01:54:36;12.80;99.90
6164;DHT22;3114;48.362;10.994;2022-11-10T01:57:06;12.70;99.90
6164;DHT22;3114;48.362;10.994;2022-11-10T01:59:37;12.70;99.90
6164;DHT22;3114;48.362;10.994;2022-11-10T02:02:10;12.70;99.90
6164;DHT22;3114;48.362;10.994;2022-11-10T02:04:39;12.70;99.90
6164;DHT22;3114;48.362;10.994;2022-11-10T02:07:07;12.70;99.90
6164;DHT22;3114;48.362;10.994;2022-11-10T02:09:36;12.80;99.90
6164;DHT22;3114;48.362;10.994;2022-11-10T02:12:03;12.70;99.90
6164;DHT22;3114;48.362;10.994;2022-11-10T02:14:30;12.70;99.90
6164;DHT22;3114;48.362;10.994;2022-11-10T02:16:57;12.70;99.90
6164;DHT22;3114;48.362;10.994;2022-11-10T02:19:25;12.70;99.90
6164;DHT22;3114;48.362;10.994;2022-11-10T02:21:53;12.60;99.90
6164;DHT22;3114;48.362;10.994;2022-11-10T02:24:20;12.30;99.90
6164;DHT22;3114;48.362;10.994;2022-11-10T02:26:50;12.10;99.90
6164;DHT22;3114;48.362;10.994;2022-11-10T02:29:18;12.20;99.90
6164;DHT22;3114;48.362;10.994;2022-11-10T02:31:45;12.20;99.90
6164;DHT22;3114;48.362;10.994;2022-11-10T02:34:12;12.30;99.90
6164;DHT22;3114;48.362;10.994;2022-11-10T02:36:38;12.20;99.90
6164;DHT22;3114;48.362;10.994;2022-11-10T02:39:07;12.00;99.90
6164;DHT22;3114;48.362;10.994;2022-11-10T02:41:34;12.00;99.90
6164;DHT22;3114;48.362;10.994;2022-11-10T02:44:02;11.90;99.90
6164;DHT22;3114;48.362;10.994;2022-11-10T02:46:30;11.80;99.90
6164;DHT22;3114;48.362;10.994;2022-11-10T02:48:57;11.80;99.90
6164;DHT22;3114;48.362;10.994;2022-11-10T02:51:24;12.00;99.90
6164;DHT22;3114;48.362;10.994;2022-11-10T02:53:51;12.20;99.90
6164;DHT22;3114;48.362;10.994;2022-11-10T02:56:19;12.20;99.90
6164;DHT22;3114;48.362;10.994;2022-11-10T02:58:46;12.40;99.90
6164;DHT22;3114;48.362;10.994;2022-11-10T03:01:12;12.50;99.90
6164;DHT22;3114;48.362;10.994;2022-11-10T03:03:39;12.60;99.90
6164;DHT22;3114;48.362;10.994;2022-11-10T03:06:06;12.60;99.90
6164;DHT22;3114;48.362;10.994;2022-11-10T03:08:33;12.40;99.90
6164;DHT22;3114;48.362;10.994;2022-11-10T03:11:00;12.50;99.90
6164;DHT22;3114;48.362;10.994;2022-11-10T03:13:28;12.40;99.90
6164;DHT22;3114;48.362;10.994;2022-11-10T03:15:57;12.40;99.90
6164;DHT22;3114;48.362;10.994;2022-11-10T03:18:23;12.60;99.90
6164;DHT22;3114;48.362;10.994;2022-11-10T03:20:50;12.60;99.90
6164;DHT22;3114;48.362;10.994;2022-11-10T03:23:17;12.70;99.90
6164;DHT22;3114;48.362;10.994;2022-11-10T03:25:45;12.60;99.90
6164;DHT22;3114;48.362;10.994;2022-11-10T03:28:12;12.50;99.90
6164;DHT22;3114;48.362;10.994;2022-11-10T03:30:40;12.50;99.90
6164;DHT22;3114;48.362;10.994;2022-11-10T03:33:07;12.50;99.90
6164;DHT22;3114;48.362;10.994;2022-11-10T03:35:35;12.40;99.90
6164;DHT22;3114;48.362;10.994;2022-11-10T03:38:02;12.50;99.90
6164;DHT22;3114;48.362;10.994;2022-11-10T03:40:29;12.60;99.90
6164;DHT22;3114;48.362;10.994;2022-11-10T03:42:56;12.70;99.90
6164;DHT22;3114;48.362;10.994;2022-11-10T03:45:23;12.70;99.90
6164;DHT22;3114;48.362;10.994;2022-11-10T03:47:51;12.60;99.90
6164;DHT22;3114;48.362;10.994;2022-11-10T03:50:18;12.50;99.90
6164;DHT22;3114;48.362;10.994;2022-11-10T03:52:45;12.50;99.90
6164;DHT22;3114;48.362;10.994;2022-11-10T03:55:15;12.50;99.90
6164;DHT22;3114;48.362;10.994;2022-11-10T03:57:43;12.50;99.90
6164;DHT22;3114;48.362;10.994;2022-11-10T04:00:11;12.30;99.90
6164;DHT22;3114;48.362;10.994;2022-11-10T04:02:39;12.20;99.90
6164;DHT22;3114;48.362;10.994;2022-11-10T04:05:08;12.10;99.90
6164;DHT22;3114;48.362;10.994;2022-11-10T04:07:57;12.00;99.90
6164;DHT22;3114;48.362;10.994;2022-11-10T04:10:41;11.80;99.90
6164;DHT22;3114;48.362;10.994;2022-11-10T04:13:08;11.70;99.90
6164;DHT22;3114;48.362;10.994;2022-11-10T04:15:52;11.70;99.90
6164;DHT22;3114;48.362;10.994;2022-11-10T04:18:19;11.60;99.90
6164;DHT22;3114;48.362;10.994;2022-11-10T04:20:48;11.50;99.90
6164;DHT22;3114;48.362;10.994;2022-11-10T04:23:15;11.60;99.90
6164;DHT22;3114;48.362;10.994;2022-11-10T04:25:57;11.70;99.90
6164;DHT22;3114;48.362;10.994;2022-11-10T04:28:43;11.60;99.90
6164;DHT22;3114;48.362;10.994;2022-11-10T04:31:10;11.60;99.90
6164;DHT22;3114;48.362;10.994;2022-11-10T04:33:39;11.70;99.90
6164;DHT22;3114;48.362;10.994;2022-11-10T04:36:09;11.70;99.90
6164;DHT22;3114;48.362;10.994;2022-11-10T04:38:36;11.60;99.90
6164;DHT22;3114;48.362;10.994;2022-11-10T04:41:04;11.60;99.90
6164;DHT22;3114;48.362;10.994;2022-11-10T04:43:31;11.50;99.90
6164;DHT22;3114;48.362;10.994;2022-11-10T04:45:59;11.50;99.90
6164;DHT22;3114;48.362;10.994;2022-11-10T04:48:26;11.50;99.90
6164;DHT22;3114;48.362;10.994;2022-11-10T04:50:53;11.50;99.90
6164;DHT22;3114;48.362;10.994;2022-11-10T04:53:22;11.50;99.90
6164;DHT22;3114;48.362;10.994;2022-11-10T04:55:50;11.50;99.90
6164;DHT22;3114;48.362;10.994;2022-11-10T04:58:17;11.40;99.90
6164;DHT22;3114;48.362;10.994;2022-11-10T05:00:44;11.40;99.90
6164;DHT22;3114;48.362;10.994;2022-11-10T05:03:11;11.30;99.90
6164;DHT22;3114;48.362;10.994;2022-11-10T05:05:39;11.50;99.90
6164;DHT22;3114;48.362;10.994;2022-11-10T05:08:07;11.50;99.90
6164;DHT22;3114;48.362;10.994;2022-11-10T05:10:36;11.50;99.90
6164;DHT22;3114;48.362;10.994;2022-11-10T05:13:03;11.50;99.90
6164;DHT22;3114;48.362;10.994;2022-11-10T05:15:31;11.50;99.90
6164;DHT22;3114;48.362;10.994;2022-11-10T05:17:58;11.50;99.90
6164;DHT22;3114;48.362;10.994;2022-11-10T05:20:25;11.50;99.90
6164;DHT22;3114;48.362;10.994;2022-11-10T05:22:52;11.50;99.90
6164;DHT22;3114;48.362;10.994;2022-11-10T05:25:39;11.50;99.90
6164;DHT22;3114;48.362;10.994;2022-11-10T05:28:08;11.30;99.90
6164;DHT22;3114;48.362;10.994;2022-11-10T05:30:35;11.40;99.90
6164;DHT22;3114;48.362;10.994;2022-11-10T05:33:02;11.50;99.90
6164;DHT22;3114;48.362;10.994;2022-11-10T05:35:29;11.80;99.90
6164;DHT22;3114;48.362;10.994;2022-11-10T05:37:56;11.60;99.90
6164;DHT22;3114;48.362;10.994;2022-11-10T05:40:23;11.60;99.90
6164;DHT22;3114;48.362;10.994;2022-11-10T05:42:52;11.50;99.90
6164;DHT22;3114;48.362;10.994;2022-11-10T05:45:19;11.50;99.90
6164;DHT22;3114;48.362;10.994;2022-11-10T05:47:47;11.50;99.90
6164;DHT22;3114;48.362;10.994;2022-11-10T05:50:15;11.50;99.90
6164;DHT22;3114;48.362;10.994;2022-11-10T05:52:43;11.40;99.90
6164;DHT22;3114;48.362;10.994;2022-11-10T05:55:11;11.30;99.90
6164;DHT22;3114;48.362;10.994;2022-11-10T05:57:41;11.40;99.90
6164;DHT22;3114;48.362;10.994;2022-11-10T06:00:11;11.40;99.90
6164;DHT22;3114;48.362;10.994;2022-11-10T06:02:41;11.50;99.90
6164;DHT22;3114;48.362;10.994;2022-11-10T06:05:08;11.50;99.90
6164;DHT22;3114;48.362;10.994;2022-11-10T06:07:36;11.40;99.90
6164;DHT22;3114;48.362;10.994;2022-11-10T06:10:04;11.50;99.90
6164;DHT22;3114;48.362;10.994;2022-11-10T06:12:31;11.30;99.90
6164;DHT22;3114;48.362;10.994;2022-11-10T06:14:59;11.60;99.90
6164;DHT22;3114;48.362;10.994;2022-11-10T06:17:28;11.80;99.90
6164;DHT22;3114;48.362;10.994;2022-11-10T06:19:55;11.90;99.90
6164;DHT22;3114;48.362;10.994;2022-11-10T06:22:22;11.90;99.90
6164;DHT22;3114;48.362;10.994;2022-11-10T06:24:49;11.80;99.90
6164;DHT22;3114;48.362;10.994;2022-11-10T06:27:15;11.70;99.90
6164;DHT22;3114;48.362;10.994;2022-11-10T06:29:43;11.50;99.90
6164;DHT22;3114;48.362;10.994;2022-11-10T06:32:10;11.70;99.90
6164;DHT22;3114;48.362;10.994;2022-11-10T06:34:38;11.50;99.90
6164;DHT22;3114;48.362;10.994;2022-11-10T06:37:05;11.30;99.90
6164;DHT22;3114;48.362;10.994;2022-11-10T06:39:32;11.20;99.90
6164;DHT22;3114;48.362;10.994;2022-11-10T06:41:59;11.40;99.90
6164;DHT22;3114;48.362;10.994;2022-11-10T06:44:26;11.30;99.90
6164;DHT22;3114;48.362;10.994;2022-11-10T06:46:53;11.30;99.90
6164;DHT22;3114;48.362;10.994;2022-11-10T06:49:20;11.30;99.90
6164;DHT22;3114;48.362;10.994;2022-11-10T06:51:48;11.30;99.90
6164;DHT22;3114;48.362;10.994;2022-11-10T06:54:15;11.30;99.90
6164;DHT22;3114;48.362;10.994;2022-11-10T06:56:42;11.30;99.90
6164;DHT22;3114;48.362;10.994;2022-11-10T06:59:09;11.30;99.90
6164;DHT22;3114;48.362;10.994;2022-11-10T07:01:35;11.40;99.90
6164;DHT22;3114;48.362;10.994;2022-11-10T07:04:02;11.50;99.90
6164;DHT22;3114;48.362;10.994;2022-11-10T07:06:29;11.50;99.90
6164;DHT22;3114;48.362;10.994;2022-11-10T07:08:58;11.50;99.90
6164;DHT22;3114;48.362;10.994;2022-11-10T07:11:24;11.60;99.90
6164;DHT22;3114;48.362;10.994;2022-11-10T07:13:51;11.30;99.90
6164;DHT22;3114;48.362;10.994;2022-11-10T07:16:18;11.00;99.90
6164;DHT22;3114;48.362;10.994;2022-11-10T07:18:46;11.00;99.90
6164;DHT22;3114;48.362;10.994;2022-11-10T07:21:13;11.00;99.90
6164;DHT22;3114;48.362;10.994;2022-11-10T07:23:40;11.10;99.90
6164;DHT22;3114;48.362;10.994;2022-11-10T07:26:08;11.10;99.90
6164;DHT22;3114;48.362;10.994;2022-11-10T07:28:35;11.20;99.90
6164;DHT22;3114;48.362;10.994;2022-11-10T07:31:02;10.90;99.90
6164;DHT22;3114;48.362;10.994;2022-11-10T07:33:29;10.90;99.90
6164;DHT22;3114;48.362;10.994;2022-11-10T07:35:57;10.80;99.90
6164;DHT22;3114;48.362;10.994;2022-11-10T07:38:24;10.70;99.90
6164;DHT22;3114;48.362;10.994;2022-11-10T07:40:52;10.80;99.90
6164;DHT22;3114;48.362;10.994;2022-11-10T07:43:22;10.80;99.90
6164;DHT22;3114;48.362;10.994;2022-11-10T07:45:49;10.70;99.90
6164;DHT22;3114;48.362;10.994;2022-11-10T07:48:16;10.60;99.90
6164;DHT22;3114;48.362;10.994;2022-11-10T07:50:43;10.70;99.90
6164;DHT22;3114;48.362;10.994;2022-11-10T07:53:12;10.70;99.90
6164;DHT22;3114;48.362;10.994;2022-11-10T07:55:42;10.70;99.90
6164;DHT22;3114;48.362;10.994;2022-11-10T07:58:15;10.70;99.90
6164;DHT22;3114;48.362;10.994;2022-11-10T08:00:44;10.80;99.90
6164;DHT22;3114;48.362;10.994;2022-11-10T08:03:13;10.60;99.90
6164;DHT22;3114;48.362;10.994;2022-11-10T08:05:40;10.70;99.90
6164;DHT22;3114;48.362;10.994;2022-11-10T08:08:07;10.70;99.90
6164;DHT22;3114;48.362;10.994;2022-11-10T08:10:35;10.90;99.90
6164;DHT22;3114;48.362;10.994;2022-11-10T08:13:03;11.00;99.90
6164;DHT22;3114;48.362;10.994;2022-11-10T08:15:31;11.10;99.90
6164;DHT22;3114;48.362;10.994;2022-11-10T08:18:01;11.20;99.90
6164;DHT22;3114;48.362;10.994;2022-11-10T08:20:29;11.40;99.90
6164;DHT22;3114;48.362;10.994;2022-11-10T08:22:57;11.40;99.90
6164;DHT22;3114;48.362;10.994;2022-11-10T08:25:24;11.40;99.90
6164;DHT22;3114;48.362;10.994;2022-11-10T08:27:56;11.60;99.90
6164;DHT22;3114;48.362;10.994;2022-11-10T08:30:24;11.50;99.90
6164;DHT22;3114;48.362;10.994;2022-11-10T08:32:53;11.50;99.90
6164;DHT22;3114;48.362;10.994;2022-11-10T08:35:22;11.50;99.90
6164;DHT22;3114;48.362;10.994;2022-11-10T08:37:49;11.60;99.90
6164;DHT22;3114;48.362;10.994;2022-11-10T08:40:16;11.50;99.90
6164;DHT22;3114;48.362;10.994;2022-11-10T08:42:43;11.50;99.90
6164;DHT22;3114;48.362;10.994;2022-11-10T08:45:10;11.40;99.90
6164;DHT22;3114;48.362;10.994;2022-11-10T08:47:37;11.40;99.90
6164;DHT22;3114;48.362;10.994;2022-11-10T08:50:05;11.30;99.90
6164;DHT22;3114;48.362;10.994;2022-11-10T08:52:33;11.40;99.90
6164;DHT22;3114;48.362;10.994;2022-11-10T08:55:00;11.40;99.90
6164;DHT22;3114;48.362;10.994;2022-11-10T08:57:27;11.50;99.90
6164;DHT22;3114;48.362;10.994;2022-11-10T08:59:54;11.50;99.90
6164;DHT22;3114;48.362;10.994;2022-11-10T09:02:21;11.60;99.90
6164;DHT22;3114;48.362;10.994;2022-11-10T09:04:48;11.60;99.90
6164;DHT22;3114;48.362;10.994;2022-11-10T09:07:15;11.80;99.90
6164;DHT22;3114;48.362;10.994;2022-11-10T09:09:44;11.80;99.90
6164;DHT22;3114;48.362;10.994;2022-11-10T09:12:11;11.90;99.90
6164;DHT22;3114;48.362;10.994;2022-11-10T09:14:37;11.80;99.90
6164;DHT22;3114;48.362;10.994;2022-11-10T09:17:04;11.90;99.90
6164;DHT22;3114;48.362;10.994;2022-11-10T09:19:31;11.80;99.90
6164;DHT22;3114;48.362;10.994;2022-11-10T09:21:58;11.80;99.90
6164;DHT22;3114;48.362;10.994;2022-11-10T09:24:25;11.90;99.90
6164;DHT22;3114;48.362;10.994;2022-11-10T09:26:53;11.90;99.90
6164;DHT22;3114;48.362;10.994;2022-11-10T09:29:20;12.10;99.90
6164;DHT22;3114;48.362;10.994;2022-11-10T09:31:49;12.20;99.90
6164;DHT22;3114;48.362;10.994;2022-11-10T09:34:16;12.40;99.90
6164;DHT22;3114;48.362;10.994;2022-11-10T09:36:43;12.50;99.90
6164;DHT22;3114;48.362;10.994;2022-11-10T09:39:09;12.70;99.90
6164;DHT22;3114;48.362;10.994;2022-11-10T09:41:40;12.90;99.90
6164;DHT22;3114;48.362;10.994;2022-11-10T09:44:14;12.90;99.90
6164;DHT22;3114;48.362;10.994;2022-11-10T09:46:45;12.80;99.90
6164;DHT22;3114;48.362;10.994;2022-11-10T09:49:24;12.90;99.90
6164;DHT22;3114;48.362;10.994;2022-11-10T09:51:52;12.80;99.90
6164;DHT22;3114;48.362;10.994;2022-11-10T09:54:32;12.70;99.90
6164;DHT22;3114;48.362;10.994;2022-11-10T09:57:00;12.60;99.90
6164;DHT22;3114;48.362;10.994;2022-11-10T09:59:31;12.50;99.90
6164;DHT22;3114;48.362;10.994;2022-11-10T10:02:02;12.40;99.90
6164;DHT22;3114;48.362;10.994;2022-11-10T10:04:39;12.30;99.90
6164;DHT22;3114;48.362;10.994;2022-11-10T10:07:12;12.30;99.90
6164;DHT22;3114;48.362;10.994;2022-11-10T10:09:45;12.30;99.90
6164;DHT22;3114;48.362;10.994;2022-11-10T10:12:25;12.50;99.90
6164;DHT22;3114;48.362;10.994;2022-11-10T10:15:14;12.30;99.90
6164;DHT22;3114;48.362;10.994;2022-11-10T10:17:49;12.30;99.90
6164;DHT22;3114;48.362;10.994;2022-11-10T10:20:21;12.40;99.90
6164;DHT22;3114;48.362;10.994;2022-11-10T10:22:58;12.30;99.90
6164;DHT22;3114;48.362;10.994;2022-11-10T10:25:30;12.30;99.90
6164;DHT22;3114;48.362;10.994;2022-11-10T10:28:03;12.40;99.90
6164;DHT22;3114;48.362;10.994;2022-11-10T10:30:33;12.50;99.90
6164;DHT22;3114;48.362;10.994;2022-11-10T10:33:10;12.60;99.90
6164;DHT22;3114;48.362;10.994;2022-11-10T10:35:39;12.80;99.90
6164;DHT22;3114;48.362;10.994;2022-11-10T10:38:14;12.70;99.90
6164;DHT22;3114;48.362;10.994;2022-11-10T10:40:43;12.80;99.90
6164;DHT22;3114;48.362;10.994;2022-11-10T10:43:12;12.80;99.90
6164;DHT22;3114;48.362;10.994;2022-11-10T10:45:40;12.90;99.90
6164;DHT22;3114;48.362;10.994;2022-11-10T10:48:27;12.90;99.90
6164;DHT22;3114;48.362;10.994;2022-11-10T10:50:54;12.70;99.90
6164;DHT22;3114;48.362;10.994;2022-11-10T10:53:27;12.50;99.90
6164;DHT22;3114;48.362;10.994;2022-11-10T10:55:56;12.50;99.90
6164;DHT22;3114;48.362;10.994;2022-11-10T10:58:35;12.50;99.90
6164;DHT22;3114;48.362;10.994;2022-11-10T11:01:23;12.60;99.90
6164;DHT22;3114;48.362;10.994;2022-11-10T11:03:52;12.70;99.90
6164;DHT22;3114;48.362;10.994;2022-11-10T11:06:21;12.90;99.90
6164;DHT22;3114;48.362;10.994;2022-11-10T11:08:59;13.10;99.90
6164;DHT22;3114;48.362;10.994;2022-11-10T11:11:28;13.10;99.90
6164;DHT22;3114;48.362;10.994;2022-11-10T11:14:14;13.00;99.90
6164;DHT22;3114;48.362;10.994;2022-11-10T11:16:50;13.30;99.90
6164;DHT22;3114;48.362;10.994;2022-11-10T11:19:19;13.50;99.90
6164;DHT22;3114;48.362;10.994;2022-11-10T11:24:53;13.60;99.90
6164;DHT22;3114;48.362;10.994;2022-11-10T11:27:33;13.90;99.90
6164;DHT22;3114;48.362;10.994;2022-11-10T11:30:08;14.00;99.90
6164;DHT22;3114;48.362;10.994;2022-11-10T11:35:48;14.50;99.90
6164;DHT22;3114;48.362;10.994;2022-11-10T11:38:30;14.70;99.90
6164;DHT22;3114;48.362;10.994;2022-11-10T11:41:15;14.80;99.90
6164;DHT22;3114;48.362;10.994;2022-11-10T11:44:07;14.60;99.90
6164;DHT22;3114;48.362;10.994;2022-11-10T11:46:59;14.30;99.90
6164;DHT22;3114;48.362;10.994;2022-11-10T11:49:50;14.30;99.90
6164;DHT22;3114;48.362;10.994;2022-11-10T11:52:42;14.40;99.90
6164;DHT22;3114;48.362;10.994;2022-11-10T11:55:21;14.40;99.90
6164;DHT22;3114;48.362;10.994;2022-11-10T12:01:06;13.50;99.90
6164;DHT22;3114;48.362;10.994;2022-11-10T12:03:53;13.20;99.90
6164;DHT22;3114;48.362;10.994;2022-11-10T12:06:43;13.20;99.90
6164;DHT22;3114;48.362;10.994;2022-11-10T12:09:21;13.00;99.90
6164;DHT22;3114;48.362;10.994;2022-11-10T12:12:02;12.90;99.90
6164;DHT22;3114;48.362;10.994;2022-11-10T12:14:42;13.00;99.90
6164;DHT22;3114;48.362;10.994;2022-11-10T12:17:16;13.20;99.90
6164;DHT22;3114;48.362;10.994;2022-11-10T12:19:50;13.30;99.90
6164;DHT22;3114;48.362;10.994;2022-11-10T12:22:33;13.20;99.90
6164;DHT22;3114;48.362;10.994;2022-11-10T12:25:15;13.20;99.90
6164;DHT22;3114;48.362;10.994;2022-11-10T12:28:04;13.20;99.90
6164;DHT22;3114;48.362;10.994;2022-11-10T12:30:33;13.20;99.90
6164;DHT22;3114;48.362;10.994;2022-11-10T12:33:15;13.30;99.90
6164;DHT22;3114;48.362;10.994;2022-11-10T12:35:47;13.20;99.90
6164;DHT22;3114;48.362;10.994;2022-11-10T12:38:18;13.20;99.90
6164;DHT22;3114;48.362;10.994;2022-11-10T12:40:56;13.30;99.90
6164;DHT22;3114;48.362;10.994;2022-11-10T12:43:28;13.30;99.90
6164;DHT22;3114;48.362;10.994;2022-11-10T12:46:12;13.30;99.90
6164;DHT22;3114;48.362;10.994;2022-11-10T12:48:43;13.20;99.90
6164;DHT22;3114;48.362;10.994;2022-11-10T12:51:18;13.30;99.90
6164;DHT22;3114;48.362;10.994;2022-11-10T12:53:47;13.40;99.90
6164;DHT22;3114;48.362;10.994;2022-11-10T12:56:19;13.50;99.90
6164;DHT22;3114;48.362;10.994;2022-11-10T12:58:48;13.60;99.90
6164;DHT22;3114;48.362;10.994;2022-11-10T13:01:18;13.80;99.90
6164;DHT22;3114;48.362;10.994;2022-11-10T13:04:00;13.80;99.90
6164;DHT22;3114;48.362;10.994;2022-11-10T13:06:29;14.10;99.90
6164;DHT22;3114;48.362;10.994;2022-11-10T13:08:57;14.40;99.90
6164;DHT22;3114;48.362;10.994;2022-11-10T13:11:28;15.10;99.90
6164;DHT22;3114;48.362;10.994;2022-11-10T13:13:57;15.40;99.90
6164;DHT22;3114;48.362;10.994;2022-11-10T13:16:45;16.70;99.90
6164;DHT22;3114;48.362;10.994;2022-11-10T13:19:50;17.70;99.90
6164;DHT22;3114;48.362;10.994;2022-11-10T13:22:34;18.40;99.90
6164;DHT22;3114;48.362;10.994;2022-11-10T13:28:03;18.40;99.90
6164;DHT22;3114;48.362;10.994;2022-11-10T13:30:39;19.20;99.90
6164;DHT22;3114;48.362;10.994;2022-11-10T13:33:28;19.00;99.90
6164;DHT22;3114;48.362;10.994;2022-11-10T13:35:56;20.10;99.90
6164;DHT22;3114;48.362;10.994;2022-11-10T13:38:37;19.30;99.90
6164;DHT22;3114;48.362;10.994;2022-11-10T13:41:22;18.40;99.90
6164;DHT22;3114;48.362;10.994;2022-11-10T13:43:52;18.00;99.90
6164;DHT22;3114;48.362;10.994;2022-11-10T13:46:22;17.80;99.90
6164;DHT22;3114;48.362;10.994;2022-11-10T13:49:27;17.40;99.90
6164;DHT22;3114;48.362;10.994;2022-11-10T13:52:03;16.80;99.90
6164;DHT22;3114;48.362;10.994;2022-11-10T13:55:02;16.30;99.90
6164;DHT22;3114;48.362;10.994;2022-11-10T13:57:34;15.80;99.90
6164;DHT22;3114;48.362;10.994;2022-11-10T14:00:22;15.30;99.90
6164;DHT22;3114;48.362;10.994;2022-11-10T14:02:52;15.10;99.90
6164;DHT22;3114;48.362;10.994;2022-11-10T14:08:28;14.80;99.90
6164;DHT22;3114;48.362;10.994;2022-11-10T14:10:58;14.70;99.90
6164;DHT22;3114;48.362;10.994;2022-11-10T14:13:31;14.70;99.90
6164;DHT22;3114;48.362;10.994;2022-11-10T14:16:01;14.70;99.90
6164;DHT22;3114;48.362;10.994;2022-11-10T14:18:37;14.80;99.90
6164;DHT22;3114;48.362;10.994;2022-11-10T14:21:05;14.70;99.90
6164;DHT22;3114;48.362;10.994;2022-11-10T14:23:36;14.80;99.90
6164;DHT22;3114;48.362;10.994;2022-11-10T14:26:15;14.60;99.90
6164;DHT22;3114;48.362;10.994;2022-11-10T14:28:43;14.70;99.90
6164;DHT22;3114;48.362;10.994;2022-11-10T14:31:18;14.50;99.90
6164;DHT22;3114;48.362;10.994;2022-11-10T14:33:52;14.60;99.90
6164;DHT22;3114;48.362;10.994;2022-11-10T14:36:19;14.50;99.90
6164;DHT22;3114;48.362;10.994;2022-11-10T14:38:47;14.70;99.90
6164;DHT22;3114;48.362;10.994;2022-11-10T14:41:16;14.80;99.90
6164;DHT22;3114;48.362;10.994;2022-11-10T14:43:58;14.70;99.90
6164;DHT22;3114;48.362;10.994;2022-11-10T14:46:27;14.40;99.90
6164;DHT22;3114;48.362;10.994;2022-11-10T14:48:55;14.40;99.90
6164;DHT22;3114;48.362;10.994;2022-11-10T14:51:25;14.10;99.90
6164;DHT22;3114;48.362;10.994;2022-11-10T14:54:10;14.10;99.90
6164;DHT22;3114;48.362;10.994;2022-11-10T14:56:39;14.00;99.90
6164;DHT22;3114;48.362;10.994;2022-11-10T14:59:10;14.10;99.90
6164;DHT22;3114;48.362;10.994;2022-11-10T15:01:40;14.20;99.90
6164;DHT22;3114;48.362;10.994;2022-11-10T15:04:15;14.20;99.90
6164;DHT22;3114;48.362;10.994;2022-11-10T15:06:42;14.10;99.90
6164;DHT22;3114;48.362;10.994;2022-11-10T15:09:13;14.10;99.90
6164;DHT22;3114;48.362;10.994;2022-11-10T15:11:48;14.20;99.90
6164;DHT22;3114;48.362;10.994;2022-11-10T15:14:37;14.20;99.90
6164;DHT22;3114;48.362;10.994;2022-11-10T15:17:08;14.20;99.90
6164;DHT22;3114;48.362;10.994;2022-11-10T15:19:37;14.20;99.90
6164;DHT22;3114;48.362;10.994;2022-11-10T15:22:05;14.20;99.90
6164;DHT22;3114;48.362;10.994;2022-11-10T15:24:40;14.40;99.90
6164;DHT22;3114;48.362;10.994;2022-11-10T15:27:11;14.50;99.90
6164;DHT22;3114;48.362;10.994;2022-11-10T15:29:41;14.50;99.90
6164;DHT22;3114;48.362;10.994;2022-11-10T15:32:15;14.40;99.90
6164;DHT22;3114;48.362;10.994;2022-11-10T15:34:43;14.30;99.90
6164;DHT22;3114;48.362;10.994;2022-11-10T15:37:24;14.10;99.90
6164;DHT22;3114;48.362;10.994;2022-11-10T15:39:52;14.20;99.90
6164;DHT22;3114;48.362;10.994;2022-11-10T15:42:41;14.10;99.90
6164;DHT22;3114;48.362;10.994;2022-11-10T15:45:08;14.00;99.90
6164;DHT22;3114;48.362;10.994;2022-11-10T15:47:37;14.00;99.90
6164;DHT22;3114;48.362;10.994;2022-11-10T15:50:04;13.90;99.90
6164;DHT22;3114;48.362;10.994;2022-11-10T15:52:31;13.90;99.90
6164;DHT22;3114;48.362;10.994;2022-11-10T15:54:58;13.90;99.90
6164;DHT22;3114;48.362;10.994;2022-11-10T15:57:25;13.90;99.90
6164;DHT22;3114;48.362;10.994;2022-11-10T15:59:54;13.90;99.90
6164;DHT22;3114;48.362;10.994;2022-11-10T16:02:24;13.70;99.90
6164;DHT22;3114;48.362;10.994;2022-11-10T16:04:52;13.70;99.90
6164;DHT22;3114;48.362;10.994;2022-11-10T16:07:20;13.70;99.90
6164;DHT22;3114;48.362;10.994;2022-11-10T16:09:47;13.60;99.90
6164;DHT22;3114;48.362;10.994;2022-11-10T16:12:16;13.50;99.90
6164;DHT22;3114;48.362;10.994;2022-11-10T16:14:47;13.50;99.90
6164;DHT22;3114;48.362;10.994;2022-11-10T16:17:16;13.50;99.90
6164;DHT22;3114;48.362;10.994;2022-11-10T16:19:44;13.50;99.90
6164;DHT22;3114;48.362;10.994;2022-11-10T16:22:12;13.50;99.90